createdAt,value
2022-09-14T00:00:11.613Z,2.53
2022-09-14T00:02:39.337Z,3.47
2022-09-14T00:05:07.829Z,3.95
2022-09-14T00:07:36.873Z,3.15
2022-09-14T00:10:05.274Z,2.38
2022-09-14T00:12:32.929Z,2.15
2022-09-14T00:15:00.987Z,2.95
2022-09-14T00:17:28.603Z,3.58
2022-09-14T00:19:56.198Z,4.10
2022-09-14T00:22:23.829Z,3.13
2022-09-14T00:24:53.048Z,2.95
2022-09-14T00:27:20.672Z,4.55
2022-09-14T00:29:48.927Z,3.00
2022-09-14T00:32:16.726Z,4.60
2022-09-14T00:34:44.923Z,3.20
2022-09-14T00:37:12.709Z,3.63
2022-09-14T00:39:40.525Z,3.70
2022-09-14T00:42:13.283Z,3.40
2022-09-14T00:45:06.817Z,2.50
2022-09-14T00:47:34.630Z,2.30
2022-09-14T00:50:04.427Z,4.13
2022-09-14T00:52:33.843Z,2.75
2022-09-14T00:55:03.247Z,1.70
2022-09-14T00:57:35.877Z,3.90
2022-09-14T01:00:05.310Z,4.50
2022-09-14T01:02:33.788Z,2.90
2022-09-14T01:05:01.527Z,3.03
2022-09-14T01:07:39.346Z,3.05
2022-09-14T01:10:17.449Z,3.53
2022-09-14T01:12:52.381Z,2.47
2022-09-14T01:15:25.413Z,2.65
2022-09-14T01:17:59.016Z,4.32
2022-09-14T01:20:29.272Z,3.55
2022-09-14T01:23:03.928Z,5.38
2022-09-14T01:25:52.819Z,3.55
2022-09-14T01:28:25.035Z,3.13
2022-09-14T01:30:54.526Z,2.67
2022-09-14T01:33:26.140Z,4.00
2022-09-14T01:35:55.427Z,3.03
2022-09-14T01:38:27.337Z,2.92
2022-09-14T01:40:56.994Z,3.22
2022-09-14T01:43:30.737Z,5.85
2022-09-14T01:46:05.779Z,4.75
2022-09-14T01:48:37.702Z,4.07
2022-09-14T01:51:09.206Z,3.42
2022-09-14T01:53:38.598Z,4.13
2022-09-14T01:56:10.951Z,3.65
2022-09-14T01:58:42.222Z,3.70
2022-09-14T02:01:11.631Z,3.30
2022-09-14T02:03:44.968Z,4.30
2022-09-14T02:06:15.498Z,3.05
2022-09-14T02:08:43.332Z,2.80
2022-09-14T02:11:11.008Z,3.60
2022-09-14T02:13:40.207Z,3.40
2022-09-14T02:16:07.917Z,2.35
2022-09-14T02:18:35.665Z,2.70
2022-09-14T02:21:05.927Z,3.10
2022-09-14T02:23:33.678Z,4.65
2022-09-14T02:26:01.810Z,1.40
2022-09-14T02:28:29.490Z,3.45
2022-09-14T02:31:06.906Z,2.10
2022-09-14T02:33:40.936Z,2.70
2022-09-14T02:36:14.518Z,3.40
2022-09-14T02:38:47.870Z,2.60
2022-09-14T02:41:23.147Z,1.65
2022-09-14T02:43:55.440Z,2.25
2022-09-14T02:46:38.355Z,1.90
2022-09-14T02:49:10.758Z,5.68
2022-09-14T02:51:46.494Z,2.28
2022-09-14T02:54:16.991Z,2.83
2022-09-14T02:56:44.960Z,2.22
2022-09-14T02:59:12.747Z,1.53
2022-09-14T03:01:41.804Z,3.33
2022-09-14T03:04:09.516Z,1.95
2022-09-14T03:06:37.497Z,2.42
2022-09-14T03:09:05.175Z,2.42
2022-09-14T03:11:32.808Z,2.23
2022-09-14T03:14:00.474Z,2.05
2022-09-14T03:16:28.178Z,3.03
2022-09-14T03:18:57.218Z,2.08
2022-09-14T03:21:24.949Z,2.70
2022-09-14T03:23:55.155Z,2.28
2022-09-14T03:26:24.370Z,2.80
2022-09-14T03:28:52.736Z,3.78
2022-09-14T03:31:20.768Z,3.20
2022-09-14T03:33:48.857Z,3.10
2022-09-14T03:36:19.776Z,3.08
2022-09-14T03:38:49.194Z,3.83
2022-09-14T03:41:17.050Z,2.13
2022-09-14T03:43:45.122Z,2.05
2022-09-14T03:46:14.642Z,2.25
2022-09-14T03:48:42.774Z,2.63
2022-09-14T03:51:12.439Z,2.78
2022-09-14T03:53:42.456Z,3.28
2022-09-14T03:56:10.937Z,3.40
2022-09-14T03:58:39.211Z,3.55
2022-09-14T04:01:08.356Z,3.30
2022-09-14T04:03:36.231Z,3.10
2022-09-14T04:06:05.275Z,3.25
2022-09-14T04:08:33.701Z,3.03
2022-09-14T04:11:07.912Z,4.55
2022-09-14T04:13:35.852Z,4.47
2022-09-14T04:16:03.921Z,3.15
2022-09-14T04:18:32.003Z,3.75
2022-09-14T04:21:05.789Z,5.33
2022-09-14T04:23:46.271Z,3.75
2022-09-14T04:26:26.317Z,6.82
2022-09-14T04:28:54.403Z,4.72
2022-09-14T04:31:22.137Z,4.32
2022-09-14T04:33:50.801Z,4.10
2022-09-14T04:36:19.835Z,4.70
2022-09-14T04:38:47.842Z,4.07
2022-09-14T04:41:17.173Z,2.88
2022-09-14T04:43:48.066Z,4.13
2022-09-14T04:46:16.962Z,4.55
2022-09-14T04:48:45.044Z,2.75
2022-09-14T04:51:16.629Z,2.88
2022-09-14T04:53:45.243Z,3.53
2022-09-14T04:56:14.529Z,4.20
2022-09-14T04:58:47.221Z,3.33
2022-09-14T05:01:22.030Z,5.00
2022-09-14T05:03:50.029Z,4.93
2022-09-14T05:06:18.852Z,3.70
2022-09-14T05:08:47.457Z,3.83
2022-09-14T05:11:17.129Z,3.72
2022-09-14T05:13:49.547Z,3.97
2022-09-14T05:16:20.985Z,5.28
2022-09-14T05:18:49.306Z,5.45
2022-09-14T05:21:18.628Z,5.68
2022-09-14T05:23:46.836Z,7.75
2022-09-14T05:26:15.442Z,5.43
2022-09-14T05:28:43.293Z,5.65
2022-09-14T05:31:13.107Z,4.95
2022-09-14T05:33:42.340Z,5.97
2022-09-14T05:36:10.588Z,5.45
2022-09-14T05:38:39.601Z,5.10
2022-09-14T05:41:08.594Z,5.70
2022-09-14T05:43:36.309Z,6.95
2022-09-14T05:46:05.191Z,7.82
2022-09-14T05:48:33.562Z,5.72
2022-09-14T05:51:04.903Z,5.88
2022-09-14T05:53:32.643Z,6.72
2022-09-14T05:56:01.446Z,5.15
2022-09-14T05:58:29.171Z,5.32
2022-09-14T06:00:56.821Z,6.32
2022-09-14T06:03:24.626Z,8.70
2022-09-14T06:05:54.730Z,6.70
2022-09-14T06:08:24.624Z,5.25
2022-09-14T06:10:52.232Z,5.15
2022-09-14T06:13:19.847Z,5.05
2022-09-14T06:15:47.566Z,6.28
2022-09-14T06:18:15.305Z,5.17
2022-09-14T06:20:51.353Z,5.45
2022-09-14T06:23:19.145Z,6.25
2022-09-14T06:25:48.198Z,5.00
2022-09-14T06:28:15.840Z,6.75
2022-09-14T06:30:44.906Z,6.43
2022-09-14T06:33:12.587Z,6.03
2022-09-14T06:35:42.082Z,7.32
2022-09-14T06:38:09.737Z,6.22
2022-09-14T06:40:37.502Z,6.57
2022-09-14T06:43:06.514Z,5.55
2022-09-14T06:45:34.140Z,7.10
2022-09-14T06:48:01.978Z,5.78
2022-09-14T06:50:29.837Z,5.40
2022-09-14T06:52:57.446Z,7.82
2022-09-14T06:55:25.165Z,6.90
2022-09-14T06:57:52.796Z,6.72
2022-09-14T07:00:21.958Z,4.27
2022-09-14T07:02:53.565Z,5.03
2022-09-14T07:05:23.117Z,6.43
2022-09-14T07:07:52.382Z,5.00
2022-09-14T07:10:20.111Z,7.05
2022-09-14T07:12:48.166Z,7.55
2022-09-14T07:15:18.208Z,7.13
2022-09-14T07:17:47.296Z,6.28
2022-09-14T07:20:15.456Z,5.50
2022-09-14T07:22:43.106Z,5.82
2022-09-14T07:25:11.826Z,5.90
2022-09-14T07:27:39.727Z,7.28
2022-09-14T07:30:08.961Z,9.07
2022-09-14T07:32:36.596Z,5.70
2022-09-14T07:35:06.392Z,7.93
2022-09-14T07:37:34.023Z,4.80
2022-09-14T07:40:02.000Z,6.80
2022-09-14T07:42:29.681Z,6.60
2022-09-14T07:44:57.239Z,9.20
2022-09-14T07:47:24.954Z,7.35
2022-09-14T07:49:52.774Z,7.80
2022-09-14T07:52:21.799Z,6.60
2022-09-14T07:54:49.469Z,6.95
2022-09-14T07:57:17.341Z,8.80
2022-09-14T07:59:45.026Z,8.10
2022-09-14T08:02:12.754Z,9.20
2022-09-14T08:04:40.474Z,13.60
2022-09-14T08:07:09.086Z,11.07
2022-09-14T08:09:38.874Z,8.50
2022-09-14T08:12:06.792Z,13.70
2022-09-14T08:14:34.674Z,6.32
2022-09-14T08:17:02.408Z,7.28
2022-09-14T08:19:30.168Z,7.53
2022-09-14T08:21:57.893Z,5.60
2022-09-14T08:24:25.514Z,4.97
2022-09-14T08:26:54.915Z,6.57
2022-09-14T08:29:23.096Z,7.55
2022-09-14T08:31:52.071Z,7.47
2022-09-14T08:34:21.552Z,9.70
2022-09-14T08:36:49.305Z,7.60
2022-09-14T08:39:18.050Z,5.75
2022-09-14T08:41:52.565Z,8.43
2022-09-14T08:44:26.985Z,9.07
2022-09-14T08:46:59.985Z,6.43
2022-09-14T08:49:40.672Z,6.93
2022-09-14T08:52:14.556Z,6.78
2022-09-14T08:54:42.256Z,7.30
2022-09-14T08:57:14.653Z,9.50
2022-09-14T08:59:52.006Z,5.35
2022-09-14T09:02:31.845Z,7.25
2022-09-14T09:05:05.025Z,7.28
2022-09-14T09:07:37.829Z,7.75
2022-09-14T09:10:07.275Z,6.97
2022-09-14T09:12:37.337Z,10.77
2022-09-14T09:15:16.862Z,5.43
2022-09-14T09:17:47.759Z,7.63
2022-09-14T09:20:18.661Z,6.47
2022-09-14T09:22:48.854Z,7.20
2022-09-14T09:25:23.122Z,7.85
2022-09-14T09:27:51.039Z,7.88
2022-09-14T09:30:20.151Z,7.53
2022-09-14T09:32:47.799Z,8.25
2022-09-14T09:35:16.623Z,7.13
2022-09-14T09:37:44.590Z,6.38
2022-09-14T09:40:18.071Z,18.23
2022-09-14T09:43:05.397Z,7.80
2022-09-14T09:45:51.931Z,9.13
2022-09-14T09:48:21.745Z,6.53
2022-09-14T09:50:52.105Z,6.47
2022-09-14T09:53:22.181Z,5.00
2022-09-14T09:55:50.630Z,5.53
2022-09-14T09:58:23.568Z,7.95
2022-09-14T10:01:00.741Z,5.65
2022-09-14T10:03:31.832Z,9.13
2022-09-14T10:06:04.583Z,5.53
2022-09-14T10:08:34.935Z,8.70
2022-09-14T10:11:03.894Z,7.40
2022-09-14T10:13:37.709Z,7.40
2022-09-14T10:16:09.634Z,7.78
2022-09-14T10:18:37.244Z,4.10
2022-09-14T10:21:10.066Z,6.53
2022-09-14T10:23:38.717Z,6.60
2022-09-14T10:26:24.015Z,8.52
2022-09-14T10:28:52.279Z,4.88
2022-09-14T10:31:27.147Z,5.80
2022-09-14T10:33:56.955Z,4.75
2022-09-14T10:36:29.685Z,5.05
2022-09-14T10:38:59.401Z,6.13
2022-09-14T10:41:31.921Z,3.50
2022-09-14T10:44:13.429Z,4.82
2022-09-14T10:46:47.465Z,7.30
2022-09-14T10:49:23.795Z,3.05
2022-09-14T10:51:58.418Z,6.97
2022-09-14T10:54:41.930Z,4.53
2022-09-14T10:57:15.478Z,5.10
2022-09-14T10:59:50.209Z,6.80
2022-09-14T11:02:33.207Z,3.53
2022-09-14T11:05:14.153Z,4.18
2022-09-14T11:07:52.993Z,5.18
2022-09-14T11:10:24.901Z,6.15
2022-09-14T11:13:04.549Z,6.03
2022-09-14T11:15:38.404Z,7.70
2022-09-14T11:18:17.699Z,5.03
2022-09-14T11:20:51.749Z,5.80
2022-09-14T11:23:28.705Z,3.50
2022-09-14T11:25:59.110Z,5.32
2022-09-14T11:28:30.312Z,5.60
2022-09-14T11:31:03.983Z,6.88
2022-09-14T11:33:38.140Z,4.90
2022-09-14T11:36:09.621Z,5.07
2022-09-14T11:38:41.897Z,5.00
2022-09-14T11:41:18.014Z,3.28
2022-09-14T11:43:49.226Z,5.60
2022-09-14T11:46:20.016Z,2.45
2022-09-14T11:48:53.807Z,4.70
2022-09-14T11:51:24.881Z,6.15
2022-09-14T11:53:52.521Z,3.80
2022-09-14T11:56:26.898Z,3.47
2022-09-14T11:58:59.360Z,4.88
2022-09-14T12:01:30.925Z,3.70
2022-09-14T12:04:12.358Z,2.45
2022-09-14T12:06:51.580Z,3.07
2022-09-14T12:09:53.723Z,4.70
2022-09-14T12:12:39.036Z,4.22
2022-09-14T12:15:34.547Z,3.58
2022-09-14T12:18:22.771Z,2.73
2022-09-14T12:21:01.878Z,2.45
2022-09-14T12:23:33.501Z,3.08
2022-09-14T12:26:06.375Z,3.13
2022-09-14T12:28:48.028Z,3.80
2022-09-14T12:31:34.173Z,2.60
2022-09-14T12:34:17.500Z,2.75
2022-09-14T12:37:29.846Z,2.30
2022-09-14T12:40:37.558Z,2.90
2022-09-14T12:43:48.390Z,3.67
2022-09-14T12:46:50.593Z,5.57
2022-09-14T12:49:37.962Z,2.70
2022-09-14T12:52:20.049Z,2.15
2022-09-14T12:54:59.956Z,2.25
2022-09-14T12:57:34.470Z,3.50
2022-09-14T13:00:11.001Z,3.83
2022-09-14T13:03:02.543Z,2.90
2022-09-14T13:05:31.956Z,2.65
2022-09-14T13:08:01.336Z,3.33
2022-09-14T13:10:34.000Z,3.45
2022-09-14T13:13:02.579Z,3.05
2022-09-14T13:15:33.196Z,2.35
2022-09-14T13:18:03.092Z,2.28
2022-09-14T13:20:32.513Z,1.30
2022-09-14T13:23:02.042Z,2.70
2022-09-14T13:25:35.971Z,2.38
2022-09-14T13:28:05.509Z,3.65
2022-09-14T13:30:35.029Z,3.03
2022-09-14T13:33:03.098Z,3.78
2022-09-14T13:35:33.725Z,2.55
2022-09-14T13:38:09.041Z,2.92
2022-09-14T13:40:36.793Z,2.57
2022-09-14T13:43:04.582Z,3.88
2022-09-14T13:45:33.116Z,3.13
2022-09-14T13:48:00.891Z,2.88
2022-09-14T13:50:28.584Z,2.92
2022-09-14T13:53:04.448Z,3.20
2022-09-14T13:55:45.168Z,1.40
2022-09-14T13:58:35.488Z,2.03
2022-09-14T14:01:04.658Z,2.30
2022-09-14T14:03:34.847Z,1.95
2022-09-14T14:06:17.146Z,3.80
2022-09-14T14:08:44.853Z,4.18
2022-09-14T14:11:13.990Z,3.13
2022-09-14T14:13:41.638Z,1.98
2022-09-14T14:16:20.285Z,2.00
2022-09-14T14:18:53.662Z,1.35
2022-09-14T14:21:30.167Z,3.90
2022-09-14T14:24:19.528Z,1.60
2022-09-14T14:26:53.110Z,2.73
2022-09-14T14:29:20.793Z,2.78
2022-09-14T14:31:48.791Z,2.03
2022-09-14T14:34:21.648Z,2.40
2022-09-14T14:36:50.119Z,2.90
2022-09-14T14:39:19.620Z,2.83
2022-09-14T14:41:47.870Z,3.38
2022-09-14T14:44:20.469Z,4.15
2022-09-14T14:46:48.528Z,1.75
2022-09-14T14:49:17.558Z,2.88
2022-09-14T14:51:45.547Z,1.90
2022-09-14T14:54:16.767Z,2.38
2022-09-14T14:56:46.391Z,3.30
2022-09-14T14:59:27.197Z,3.97
2022-09-14T15:01:56.426Z,2.35
2022-09-14T15:04:24.311Z,2.33
2022-09-14T15:06:52.426Z,4.37
2022-09-14T15:09:22.185Z,3.15
2022-09-14T15:11:50.364Z,2.67
2022-09-14T15:14:24.924Z,3.50
2022-09-14T15:16:57.833Z,3.08
2022-09-14T15:19:25.847Z,3.13
2022-09-14T15:21:56.255Z,5.03
2022-09-14T15:24:26.437Z,4.30
2022-09-14T15:26:54.321Z,3.03
2022-09-14T15:29:23.375Z,6.18
2022-09-14T15:31:51.484Z,4.00
2022-09-14T15:34:19.203Z,2.58
2022-09-14T15:36:50.963Z,2.80
2022-09-14T15:39:20.369Z,3.10
2022-09-14T15:41:48.261Z,3.93
2022-09-14T15:44:16.480Z,3.33
2022-09-14T15:46:46.832Z,3.20
2022-09-14T15:49:17.754Z,2.47
2022-09-14T15:51:47.448Z,2.35
2022-09-14T15:54:15.398Z,2.60
2022-09-14T15:56:43.037Z,4.85
2022-09-14T15:59:10.716Z,2.10
2022-09-14T16:01:38.297Z,1.60
2022-09-14T16:04:11.730Z,3.10
2022-09-14T16:06:40.232Z,2.80
2022-09-14T16:09:09.267Z,2.70
2022-09-14T16:11:37.842Z,3.25
2022-09-14T16:14:06.361Z,2.97
2022-09-14T16:16:34.536Z,3.45
2022-09-14T16:19:06.960Z,3.60
2022-09-14T16:21:34.549Z,2.22
2022-09-14T16:24:03.881Z,2.33
2022-09-14T16:26:38.242Z,3.95
2022-09-14T16:29:08.392Z,4.03
2022-09-14T16:31:37.333Z,3.00
2022-09-14T16:34:08.482Z,2.47
2022-09-14T16:36:39.168Z,2.05
2022-09-14T16:39:09.469Z,3.13
2022-09-14T16:41:38.962Z,3.92
2022-09-14T16:44:07.280Z,7.88
2022-09-14T16:46:35.395Z,2.85
2022-09-14T16:49:03.067Z,3.65
2022-09-14T16:51:32.317Z,2.30
2022-09-14T16:54:00.937Z,3.83
2022-09-14T16:56:30.909Z,3.70
2022-09-14T16:58:59.189Z,3.05
2022-09-14T17:01:29.649Z,3.47
2022-09-14T17:03:59.193Z,2.80
2022-09-14T17:06:29.558Z,3.65
2022-09-14T17:09:01.389Z,2.15
2022-09-14T17:11:29.793Z,10.88
2022-09-14T17:13:57.694Z,3.13
2022-09-14T17:16:27.094Z,1.73
2022-09-14T17:18:59.365Z,3.38
2022-09-14T17:21:29.961Z,3.88
2022-09-14T17:23:59.224Z,3.28
2022-09-14T17:26:27.117Z,1.90
2022-09-14T17:28:56.950Z,3.45
2022-09-14T17:31:28.168Z,1.90
2022-09-14T17:33:57.387Z,2.20
2022-09-14T17:36:26.009Z,2.53
2022-09-14T17:38:56.659Z,2.90
2022-09-14T17:41:27.919Z,3.35
2022-09-14T17:43:57.921Z,2.80
2022-09-14T17:46:25.933Z,3.63
2022-09-14T17:48:54.203Z,3.47
2022-09-14T17:51:23.086Z,2.50
2022-09-14T17:53:52.929Z,2.38
2022-09-14T17:58:43.556Z,4.55
2022-09-14T18:01:13.664Z,7.13
2022-09-14T18:03:43.124Z,3.45
2022-09-14T18:06:12.645Z,5.65
2022-09-14T18:08:40.691Z,5.50
2022-09-14T18:11:10.334Z,5.50
2022-09-14T18:13:42.502Z,6.10
2022-09-14T18:16:10.405Z,4.83
2022-09-14T18:18:38.445Z,3.80
2022-09-14T18:21:06.579Z,5.22
2022-09-14T18:23:34.629Z,2.60
2022-09-14T18:26:02.702Z,3.67
2022-09-14T18:28:31.130Z,5.05
2022-09-14T18:31:04.612Z,3.75
2022-09-14T18:33:32.369Z,5.53
2022-09-14T18:38:33.936Z,4.75
2022-09-14T18:41:04.368Z,4.53
2022-09-14T18:43:32.235Z,7.28
2022-09-14T18:46:00.460Z,4.40
2022-09-14T18:48:28.128Z,4.07
2022-09-14T18:50:55.858Z,5.43
2022-09-14T18:53:23.520Z,6.93
2022-09-14T18:55:52.554Z,6.30
2022-09-14T18:58:20.132Z,5.60
2022-09-14T19:00:48.233Z,4.10
2022-09-14T19:03:15.894Z,6.07
2022-09-14T19:05:43.638Z,6.93
2022-09-14T19:08:13.543Z,6.40
2022-09-14T19:10:47.203Z,5.97
2022-09-14T19:13:16.495Z,7.28
2022-09-14T19:15:44.500Z,5.97
2022-09-14T19:18:12.215Z,4.78
2022-09-14T19:21:04.677Z,6.07
2022-09-14T19:23:27.826Z,5.78
2022-09-14T19:25:55.497Z,5.13
2022-09-14T19:28:24.496Z,8.63
2022-09-14T19:30:52.121Z,6.93
2022-09-14T19:33:19.722Z,5.32
2022-09-14T19:35:47.592Z,7.43
2022-09-14T19:38:15.547Z,6.43
2022-09-14T19:40:52.079Z,5.00
2022-09-14T19:43:19.714Z,3.65
2022-09-14T19:45:48.881Z,7.00
2022-09-14T19:48:17.833Z,3.28
2022-09-14T19:50:46.069Z,4.30
2022-09-14T19:53:13.925Z,4.50
2022-09-14T19:55:41.544Z,4.90
2022-09-14T19:58:09.211Z,4.30
2022-09-14T20:00:37.038Z,4.05
2022-09-14T20:03:06.179Z,3.08
2022-09-14T20:05:33.914Z,3.20
2022-09-14T20:08:01.563Z,3.25
2022-09-14T20:10:29.247Z,3.45
2022-09-14T20:12:56.924Z,2.47
2022-09-14T20:15:24.572Z,1.75
2022-09-14T20:17:55.329Z,3.20
2022-09-14T20:20:24.749Z,2.53
2022-09-14T20:22:52.363Z,3.65
2022-09-14T20:25:20.034Z,3.78
2022-09-14T20:27:48.148Z,5.05
2022-09-14T20:30:15.952Z,1.48
2022-09-14T20:32:43.657Z,2.73
2022-09-14T20:35:11.283Z,2.60
2022-09-14T20:37:40.550Z,2.95
2022-09-14T20:40:10.081Z,1.58
2022-09-14T20:42:37.839Z,1.77
2022-09-14T20:45:06.438Z,2.10
2022-09-14T20:47:34.212Z,2.45
2022-09-14T20:50:01.989Z,2.10
2022-09-14T20:52:31.872Z,2.92
2022-09-14T20:55:01.054Z,1.70
2022-09-14T20:57:28.716Z,1.33
2022-09-14T20:59:57.689Z,1.98
2022-09-14T21:03:42.704Z,1.08
2022-09-14T21:06:12.060Z,3.15
